createdAt,value
2022-11-17T00:01:53.165Z,0.90
2022-11-17T00:12:20.546Z,0.70
2022-11-17T00:22:25.789Z,0.70
2022-11-17T00:32:47.664Z,0.67
2022-11-17T00:42:50.602Z,0.43
2022-11-17T00:52:55.164Z,0.90
2022-11-17T01:02:58.140Z,0.43
2022-11-17T01:13:02.661Z,0.50
2022-11-17T01:23:05.572Z,0.60
2022-11-17T01:33:09.896Z,0.67
2022-11-17T01:43:12.788Z,0.43
2022-11-17T01:53:20.362Z,0.50
2022-11-17T02:03:25.730Z,0.57
2022-11-17T02:13:30.216Z,0.50
2022-11-17T02:24:04.730Z,0.47
2022-11-17T02:34:23.766Z,0.43
2022-11-17T02:54:35.183Z,0.50
2022-11-17T03:04:47.065Z,0.60
2022-11-17T03:15:02.399Z,0.30
2022-11-17T03:25:11.953Z,0.50
2022-11-17T03:35:19.917Z,0.20
2022-11-17T03:45:26.486Z,0.23
2022-11-17T03:55:37.801Z,0.20
2022-11-17T04:05:40.843Z,0.33
2022-11-17T04:16:01.683Z,0.27
2022-11-17T04:26:22.563Z,0.40
2022-11-17T04:36:28.485Z,0.97
2022-11-17T04:46:32.875Z,0.30
2022-11-17T04:56:38.000Z,0.37
2022-11-17T05:06:43.211Z,0.50
2022-11-17T05:17:10.118Z,0.40
2022-11-17T05:27:13.880Z,0.60
2022-11-17T05:37:18.315Z,0.50
2022-11-17T05:47:21.353Z,0.50
2022-11-17T05:57:30.320Z,0.60
2022-11-17T06:07:33.593Z,0.50
2022-11-17T06:17:42.227Z,1.10
2022-11-17T06:27:46.728Z,0.73
2022-11-17T06:37:51.003Z,0.73
2022-11-17T06:47:54.407Z,0.30
2022-11-17T06:58:01.916Z,0.20
2022-11-17T07:08:08.361Z,0.30
2022-11-17T07:18:13.112Z,0.30
2022-11-17T07:28:35.812Z,0.43
2022-11-17T07:38:41.489Z,0.60
2022-11-17T07:48:44.860Z,0.40
2022-11-17T07:58:49.279Z,0.50
2022-11-17T08:08:53.716Z,0.93
2022-11-17T08:18:58.611Z,0.50
2022-11-17T08:29:02.088Z,0.50
2022-11-17T08:39:06.938Z,0.47
2022-11-17T08:49:10.029Z,0.30
2022-11-17T08:59:14.628Z,0.30
2022-11-17T09:09:18.761Z,0.37
2022-11-17T09:19:23.236Z,0.60
2022-11-17T09:29:27.581Z,0.30
2022-11-17T09:39:31.614Z,0.40
2022-11-17T09:49:43.575Z,0.40
2022-11-17T09:59:53.475Z,0.30
2022-11-17T10:09:56.799Z,0.30
2022-11-17T10:20:01.254Z,0.30
2022-11-17T10:30:08.095Z,0.50
2022-11-17T10:40:25.023Z,0.40
2022-11-17T10:50:28.982Z,0.40
2022-11-17T11:00:35.020Z,0.30
2022-11-17T11:10:38.145Z,0.20
2022-11-17T11:20:48.859Z,0.40
2022-11-17T11:31:02.785Z,0.37
2022-11-17T11:41:23.686Z,0.20
2022-11-17T11:51:30.346Z,0.40
2022-11-17T12:01:46.887Z,0.40
2022-11-17T12:12:11.130Z,0.40
2022-11-17T12:22:39.443Z,0.30
2022-11-17T12:32:55.606Z,0.80
2022-11-17T12:43:22.646Z,0.33
2022-11-17T12:53:48.582Z,0.40
2022-11-17T13:03:58.983Z,0.30
2022-11-17T13:14:10.856Z,0.60
2022-11-17T13:24:30.310Z,0.40
2022-11-17T13:34:33.498Z,0.40
2022-11-17T13:44:38.466Z,0.40
2022-11-17T13:54:44.972Z,0.60
2022-11-17T14:05:21.877Z,0.57
2022-11-17T14:15:27.881Z,0.53
2022-11-17T14:25:31.277Z,0.57
2022-11-17T14:35:35.939Z,1.07
2022-11-17T14:45:38.956Z,0.70
2022-11-17T14:55:43.360Z,0.60
2022-11-17T15:05:47.189Z,0.50
2022-11-17T15:15:51.648Z,0.40
2022-11-17T15:25:54.603Z,0.57
2022-11-17T15:36:06.523Z,0.53
2022-11-17T15:46:11.567Z,0.60
2022-11-17T15:56:18.983Z,0.63
2022-11-17T16:06:22.001Z,1.10
2022-11-17T16:16:29.161Z,1.80
2022-11-17T16:26:35.194Z,0.63
2022-11-17T16:36:41.595Z,0.77
2022-11-17T16:46:46.743Z,0.60
2022-11-17T16:56:51.024Z,0.80
2022-11-17T17:06:54.912Z,1.37
2022-11-17T17:16:59.547Z,0.80
2022-11-17T17:27:02.613Z,0.80
2022-11-17T17:37:07.092Z,1.77
2022-11-17T17:47:10.112Z,1.83
2022-11-17T17:57:14.524Z,1.10
2022-11-17T18:07:17.690Z,0.97
2022-11-17T18:17:22.120Z,1.60
2022-11-17T18:27:25.142Z,1.10
2022-11-17T18:37:30.008Z,0.60
2022-11-17T18:47:33.115Z,0.97
2022-11-17T18:57:40.783Z,0.80
2022-11-17T19:07:48.444Z,0.90
2022-11-17T19:17:52.855Z,3.07
2022-11-17T19:27:55.900Z,1.33
2022-11-17T19:38:00.667Z,1.10
2022-11-17T19:48:03.667Z,0.70
2022-11-17T19:58:07.982Z,3.03
2022-11-17T20:08:10.986Z,1.60
2022-11-17T20:18:15.346Z,1.00
2022-11-17T20:28:18.375Z,1.00
2022-11-17T20:38:22.734Z,0.97
2022-11-17T20:48:26.205Z,1.30
2022-11-17T20:58:31.443Z,1.10
2022-11-17T21:08:36.281Z,1.40
2022-11-17T21:18:46.841Z,1.20
2022-11-17T21:28:50.179Z,1.07
2022-11-17T21:38:55.104Z,1.20
2022-11-17T21:48:59.844Z,1.60
2022-11-17T21:59:06.356Z,1.50
2022-11-17T22:09:09.874Z,1.80
2022-11-17T22:19:15.917Z,1.70
2022-11-17T22:29:21.527Z,1.30
2022-11-17T22:39:26.059Z,1.30
2022-11-17T22:49:28.900Z,1.30
2022-11-17T22:59:33.256Z,1.03
2022-11-17T23:09:36.198Z,1.20
2022-11-17T23:19:40.448Z,1.10
2022-11-17T23:29:43.475Z,1.20
2022-11-17T23:39:47.723Z,1.10
2022-11-17T23:49:50.654Z,1.03
2022-11-17T23:59:54.963Z,0.90
